sensor_id;sensor_type;location;lat;lon;timestamp;P1;durP1;ratioP1;P2;durP2;ratioP2
20870;SDS011;10595;51.218;3.452;2022-11-21T00:00:22;6.57;;;0.97;;
20870;SDS011;10595;51.218;3.452;2022-11-21T00:02:48;6.80;;;1.33;;
20870;SDS011;10595;51.218;3.452;2022-11-21T00:05:15;3.50;;;1.13;;
20870;SDS011;10595;51.218;3.452;2022-11-21T00:07:41;4.43;;;1.00;;
20870;SDS011;10595;51.218;3.452;2022-11-21T00:10:08;7.30;;;1.80;;
20870;SDS011;10595;51.218;3.452;2022-11-21T00:12:34;7.93;;;1.23;;
20870;SDS011;10595;51.218;3.452;2022-11-21T00:15:00;7.10;;;1.63;;
20870;SDS011;10595;51.218;3.452;2022-11-21T00:17:26;5.60;;;1.20;;
20870;SDS011;10595;51.218;3.452;2022-11-21T00:19:52;5.13;;;1.50;;
20870;SDS011;10595;51.218;3.452;2022-11-21T00:22:18;4.97;;;1.30;;
20870;SDS011;10595;51.218;3.452;2022-11-21T00:24:44;7.77;;;1.20;;
20870;SDS011;10595;51.218;3.452;2022-11-21T00:27:10;8.00;;;1.30;;
20870;SDS011;10595;51.218;3.452;2022-11-21T00:29:36;6.90;;;1.30;;
20870;SDS011;10595;51.218;3.452;2022-11-21T00:32:02;8.60;;;1.60;;
20870;SDS011;10595;51.218;3.452;2022-11-21T00:34:28;7.30;;;1.60;;
20870;SDS011;10595;51.218;3.452;2022-11-21T00:36:54;7.93;;;1.57;;
20870;SDS011;10595;51.218;3.452;2022-11-21T00:39:20;13.60;;;1.83;;
20870;SDS011;10595;51.218;3.452;2022-11-21T00:41:46;13.93;;;2.00;;
20870;SDS011;10595;51.218;3.452;2022-11-21T00:44:12;10.47;;;2.23;;
20870;SDS011;10595;51.218;3.452;2022-11-21T00:46:37;3.87;;;1.30;;
20870;SDS011;10595;51.218;3.452;2022-11-21T00:49:03;7.07;;;1.30;;
20870;SDS011;10595;51.218;3.452;2022-11-21T00:51:29;8.77;;;1.50;;
20870;SDS011;10595;51.218;3.452;2022-11-21T00:53:55;9.90;;;1.53;;
20870;SDS011;10595;51.218;3.452;2022-11-21T00:56:21;6.40;;;1.50;;
20870;SDS011;10595;51.218;3.452;2022-11-21T00:58:47;6.23;;;1.60;;
20870;SDS011;10595;51.218;3.452;2022-11-21T01:01:14;10.93;;;1.70;;
20870;SDS011;10595;51.218;3.452;2022-11-21T01:03:40;5.83;;;1.20;;
20870;SDS011;10595;51.218;3.452;2022-11-21T01:06:09;4.57;;;1.17;;
20870;SDS011;10595;51.218;3.452;2022-11-21T01:08:37;7.17;;;1.33;;
20870;SDS011;10595;51.218;3.452;2022-11-21T01:11:04;5.27;;;1.10;;
20870;SDS011;10595;51.218;3.452;2022-11-21T01:13:31;6.00;;;1.13;;
20870;SDS011;10595;51.218;3.452;2022-11-21T01:16:01;4.83;;;1.40;;
20870;SDS011;10595;51.218;3.452;2022-11-21T01:18:27;5.43;;;1.40;;
20870;SDS011;10595;51.218;3.452;2022-11-21T01:20:53;4.93;;;1.30;;
20870;SDS011;10595;51.218;3.452;2022-11-21T01:23:19;6.60;;;1.50;;
20870;SDS011;10595;51.218;3.452;2022-11-21T01:25:45;6.70;;;1.40;;
20870;SDS011;10595;51.218;3.452;2022-11-21T01:28:11;3.53;;;1.20;;
20870;SDS011;10595;51.218;3.452;2022-11-21T01:30:37;7.23;;;1.40;;
20870;SDS011;10595;51.218;3.452;2022-11-21T01:33:03;4.90;;;1.40;;
20870;SDS011;10595;51.218;3.452;2022-11-21T01:35:29;4.60;;;1.40;;
20870;SDS011;10595;51.218;3.452;2022-11-21T01:37:55;5.20;;;1.57;;
20870;SDS011;10595;51.218;3.452;2022-11-21T01:40:21;6.10;;;1.80;;
20870;SDS011;10595;51.218;3.452;2022-11-21T01:43:01;7.43;;;2.00;;
20870;SDS011;10595;51.218;3.452;2022-11-21T01:48:12;6.23;;;1.67;;
20870;SDS011;10595;51.218;3.452;2022-11-21T01:50:38;7.57;;;1.80;;
20870;SDS011;10595;51.218;3.452;2022-11-21T01:53:04;5.37;;;1.53;;
20870;SDS011;10595;51.218;3.452;2022-11-21T01:55:30;5.17;;;2.10;;
20870;SDS011;10595;51.218;3.452;2022-11-21T01:57:57;7.07;;;1.80;;
20870;SDS011;10595;51.218;3.452;2022-11-21T02:00:24;7.93;;;1.83;;
20870;SDS011;10595;51.218;3.452;2022-11-21T02:03:01;7.23;;;2.30;;
20870;SDS011;10595;51.218;3.452;2022-11-21T02:05:29;7.73;;;1.60;;
20870;SDS011;10595;51.218;3.452;2022-11-21T02:07:57;6.40;;;1.40;;
20870;SDS011;10595;51.218;3.452;2022-11-21T02:10:23;8.23;;;1.60;;
20870;SDS011;10595;51.218;3.452;2022-11-21T02:12:50;6.87;;;1.47;;
20870;SDS011;10595;51.218;3.452;2022-11-21T02:15:17;5.67;;;1.50;;
20870;SDS011;10595;51.218;3.452;2022-11-21T02:17:43;5.27;;;1.63;;
20870;SDS011;10595;51.218;3.452;2022-11-21T02:20:10;4.17;;;1.40;;
20870;SDS011;10595;51.218;3.452;2022-11-21T02:25:23;8.03;;;1.50;;
20870;SDS011;10595;51.218;3.452;2022-11-21T02:27:51;4.53;;;1.23;;
20870;SDS011;10595;51.218;3.452;2022-11-21T02:30:19;9.03;;;1.97;;
20870;SDS011;10595;51.218;3.452;2022-11-21T02:32:46;7.67;;;1.30;;
20870;SDS011;10595;51.218;3.452;2022-11-21T02:35:12;9.27;;;1.60;;
20870;SDS011;10595;51.218;3.452;2022-11-21T02:37:39;6.43;;;1.80;;
20870;SDS011;10595;51.218;3.452;2022-11-21T02:40:10;3.27;;;1.20;;
20870;SDS011;10595;51.218;3.452;2022-11-21T02:42:42;4.13;;;1.40;;
20870;SDS011;10595;51.218;3.452;2022-11-21T02:45:20;7.03;;;1.57;;
20870;SDS011;10595;51.218;3.452;2022-11-21T02:47:47;9.27;;;1.53;;
20870;SDS011;10595;51.218;3.452;2022-11-21T02:52:40;7.60;;;1.63;;
20870;SDS011;10595;51.218;3.452;2022-11-21T02:55:06;10.47;;;1.60;;
20870;SDS011;10595;51.218;3.452;2022-11-21T02:57:33;6.63;;;1.50;;
20870;SDS011;10595;51.218;3.452;2022-11-21T02:59:59;6.57;;;1.20;;
20870;SDS011;10595;51.218;3.452;2022-11-21T03:02:25;5.20;;;1.40;;
20870;SDS011;10595;51.218;3.452;2022-11-21T03:04:51;8.30;;;1.43;;
20870;SDS011;10595;51.218;3.452;2022-11-21T03:07:17;5.00;;;1.67;;
20870;SDS011;10595;51.218;3.452;2022-11-21T03:09:43;6.80;;;1.47;;
20870;SDS011;10595;51.218;3.452;2022-11-21T03:12:09;5.03;;;1.20;;
20870;SDS011;10595;51.218;3.452;2022-11-21T03:14:35;9.37;;;1.57;;
20870;SDS011;10595;51.218;3.452;2022-11-21T03:17:02;6.40;;;1.37;;
20870;SDS011;10595;51.218;3.452;2022-11-21T03:19:29;5.13;;;1.60;;
20870;SDS011;10595;51.218;3.452;2022-11-21T03:21:55;8.57;;;1.60;;
20870;SDS011;10595;51.218;3.452;2022-11-21T03:24:21;4.33;;;1.50;;
20870;SDS011;10595;51.218;3.452;2022-11-21T03:26:47;3.50;;;1.43;;
20870;SDS011;10595;51.218;3.452;2022-11-21T03:29:13;5.73;;;1.30;;
20870;SDS011;10595;51.218;3.452;2022-11-21T03:31:39;8.80;;;1.40;;
20870;SDS011;10595;51.218;3.452;2022-11-21T03:34:05;6.43;;;1.43;;
20870;SDS011;10595;51.218;3.452;2022-11-21T03:36:31;8.73;;;1.50;;
20870;SDS011;10595;51.218;3.452;2022-11-21T03:38:57;8.77;;;1.70;;
20870;SDS011;10595;51.218;3.452;2022-11-21T03:41:23;6.67;;;1.80;;
20870;SDS011;10595;51.218;3.452;2022-11-21T03:43:59;5.57;;;1.30;;
20870;SDS011;10595;51.218;3.452;2022-11-21T03:46:26;5.47;;;1.33;;
20870;SDS011;10595;51.218;3.452;2022-11-21T03:48:52;12.13;;;1.63;;
20870;SDS011;10595;51.218;3.452;2022-11-21T03:51:18;11.00;;;1.83;;
20870;SDS011;10595;51.218;3.452;2022-11-21T03:53:45;7.47;;;1.90;;
20870;SDS011;10595;51.218;3.452;2022-11-21T03:56:11;4.10;;;1.80;;
20870;SDS011;10595;51.218;3.452;2022-11-21T03:58:37;9.73;;;2.00;;
20870;SDS011;10595;51.218;3.452;2022-11-21T04:01:03;6.90;;;1.90;;
20870;SDS011;10595;51.218;3.452;2022-11-21T04:03:29;6.67;;;1.80;;
20870;SDS011;10595;51.218;3.452;2022-11-21T04:05:56;7.07;;;1.70;;
20870;SDS011;10595;51.218;3.452;2022-11-21T04:08:22;7.47;;;2.10;;
20870;SDS011;10595;51.218;3.452;2022-11-21T04:10:49;10.20;;;1.73;;
20870;SDS011;10595;51.218;3.452;2022-11-21T04:13:15;4.27;;;1.60;;
20870;SDS011;10595;51.218;3.452;2022-11-21T04:15:41;7.80;;;2.00;;
20870;SDS011;10595;51.218;3.452;2022-11-21T04:18:07;6.53;;;2.27;;
20870;SDS011;10595;51.218;3.452;2022-11-21T04:20:34;11.20;;;2.60;;
20870;SDS011;10595;51.218;3.452;2022-11-21T04:23:00;13.17;;;3.13;;
20870;SDS011;10595;51.218;3.452;2022-11-21T04:25:26;9.93;;;1.97;;
20870;SDS011;10595;51.218;3.452;2022-11-21T04:27:55;6.90;;;2.10;;
20870;SDS011;10595;51.218;3.452;2022-11-21T04:30:21;8.47;;;2.47;;
20870;SDS011;10595;51.218;3.452;2022-11-21T04:32:49;7.57;;;2.50;;
20870;SDS011;10595;51.218;3.452;2022-11-21T04:35:15;8.90;;;2.80;;
20870;SDS011;10595;51.218;3.452;2022-11-21T04:37:41;7.83;;;2.73;;
20870;SDS011;10595;51.218;3.452;2022-11-21T04:40:07;7.33;;;2.97;;
20870;SDS011;10595;51.218;3.452;2022-11-21T04:42:33;8.90;;;3.23;;
20870;SDS011;10595;51.218;3.452;2022-11-21T04:44:59;8.77;;;2.93;;
20870;SDS011;10595;51.218;3.452;2022-11-21T04:47:25;8.60;;;3.07;;
20870;SDS011;10595;51.218;3.452;2022-11-21T04:49:51;12.03;;;3.07;;
20870;SDS011;10595;51.218;3.452;2022-11-21T04:52:17;8.80;;;3.17;;
20870;SDS011;10595;51.218;3.452;2022-11-21T04:54:43;11.47;;;3.40;;
20870;SDS011;10595;51.218;3.452;2022-11-21T04:57:09;5.83;;;3.50;;
20870;SDS011;10595;51.218;3.452;2022-11-21T04:59:35;7.80;;;3.17;;
20870;SDS011;10595;51.218;3.452;2022-11-21T05:02:02;5.73;;;3.20;;
20870;SDS011;10595;51.218;3.452;2022-11-21T05:04:28;9.57;;;3.60;;
20870;SDS011;10595;51.218;3.452;2022-11-21T05:06:54;12.43;;;3.43;;
20870;SDS011;10595;51.218;3.452;2022-11-21T05:09:20;9.20;;;3.00;;
20870;SDS011;10595;51.218;3.452;2022-11-21T05:11:46;8.43;;;3.67;;
20870;SDS011;10595;51.218;3.452;2022-11-21T05:14:31;7.13;;;3.40;;
20870;SDS011;10595;51.218;3.452;2022-11-21T05:16:57;9.87;;;3.10;;
20870;SDS011;10595;51.218;3.452;2022-11-21T05:19:23;8.53;;;3.30;;
20870;SDS011;10595;51.218;3.452;2022-11-21T05:21:49;8.23;;;2.93;;
20870;SDS011;10595;51.218;3.452;2022-11-21T05:24:15;11.67;;;3.37;;
20870;SDS011;10595;51.218;3.452;2022-11-21T05:26:41;7.20;;;3.10;;
20870;SDS011;10595;51.218;3.452;2022-11-21T05:29:07;5.73;;;2.90;;
20870;SDS011;10595;51.218;3.452;2022-11-21T05:31:33;6.87;;;3.63;;
20870;SDS011;10595;51.218;3.452;2022-11-21T05:33:59;6.20;;;3.43;;
20870;SDS011;10595;51.218;3.452;2022-11-21T05:36:25;9.47;;;3.43;;
20870;SDS011;10595;51.218;3.452;2022-11-21T05:38:51;8.90;;;3.47;;
20870;SDS011;10595;51.218;3.452;2022-11-21T05:41:17;6.63;;;3.20;;
20870;SDS011;10595;51.218;3.452;2022-11-21T05:43:43;7.33;;;3.47;;
20870;SDS011;10595;51.218;3.452;2022-11-21T05:46:12;7.47;;;3.37;;
20870;SDS011;10595;51.218;3.452;2022-11-21T05:48:38;5.50;;;3.13;;
20870;SDS011;10595;51.218;3.452;2022-11-21T05:51:04;13.20;;;3.23;;
20870;SDS011;10595;51.218;3.452;2022-11-21T05:53:30;8.53;;;3.27;;
20870;SDS011;10595;51.218;3.452;2022-11-21T05:56:00;12.27;;;3.80;;
20870;SDS011;10595;51.218;3.452;2022-11-21T05:58:27;9.77;;;3.50;;
20870;SDS011;10595;51.218;3.452;2022-11-21T06:00:57;8.60;;;3.53;;
20870;SDS011;10595;51.218;3.452;2022-11-21T06:03:24;8.53;;;3.70;;
20870;SDS011;10595;51.218;3.452;2022-11-21T06:08:24;7.43;;;3.00;;
20870;SDS011;10595;51.218;3.452;2022-11-21T06:10:50;9.07;;;3.30;;
20870;SDS011;10595;51.218;3.452;2022-11-21T06:13:16;8.97;;;3.40;;
20870;SDS011;10595;51.218;3.452;2022-11-21T06:18:15;10.40;;;3.17;;
20870;SDS011;10595;51.218;3.452;2022-11-21T06:20:41;5.70;;;2.97;;
20870;SDS011;10595;51.218;3.452;2022-11-21T06:23:07;7.93;;;3.13;;
20870;SDS011;10595;51.218;3.452;2022-11-21T06:25:33;7.33;;;3.20;;
20870;SDS011;10595;51.218;3.452;2022-11-21T06:27:59;10.03;;;2.93;;
20870;SDS011;10595;51.218;3.452;2022-11-21T06:30:25;9.57;;;3.00;;
20870;SDS011;10595;51.218;3.452;2022-11-21T06:32:51;10.03;;;3.20;;
20870;SDS011;10595;51.218;3.452;2022-11-21T06:35:17;9.60;;;2.90;;
20870;SDS011;10595;51.218;3.452;2022-11-21T06:37:43;8.47;;;3.10;;
20870;SDS011;10595;51.218;3.452;2022-11-21T06:40:09;11.57;;;2.63;;
20870;SDS011;10595;51.218;3.452;2022-11-21T06:42:35;9.43;;;2.93;;
20870;SDS011;10595;51.218;3.452;2022-11-21T06:45:01;8.40;;;3.33;;
20870;SDS011;10595;51.218;3.452;2022-11-21T06:47:27;6.70;;;2.70;;
20870;SDS011;10595;51.218;3.452;2022-11-21T06:49:53;6.17;;;3.37;;
20870;SDS011;10595;51.218;3.452;2022-11-21T06:52:19;13.43;;;3.23;;
20870;SDS011;10595;51.218;3.452;2022-11-21T06:54:45;10.43;;;3.43;;
20870;SDS011;10595;51.218;3.452;2022-11-21T06:57:11;10.97;;;3.60;;
20870;SDS011;10595;51.218;3.452;2022-11-21T06:59:37;9.83;;;3.40;;
20870;SDS011;10595;51.218;3.452;2022-11-21T07:02:03;9.53;;;3.33;;
20870;SDS011;10595;51.218;3.452;2022-11-21T07:04:29;12.20;;;4.43;;
20870;SDS011;10595;51.218;3.452;2022-11-21T07:06:55;9.53;;;4.27;;
20870;SDS011;10595;51.218;3.452;2022-11-21T07:09:21;10.97;;;3.80;;
20870;SDS011;10595;51.218;3.452;2022-11-21T07:11:47;7.13;;;4.03;;
20870;SDS011;10595;51.218;3.452;2022-11-21T07:14:13;7.53;;;4.07;;
20870;SDS011;10595;51.218;3.452;2022-11-21T07:16:39;12.53;;;4.27;;
20870;SDS011;10595;51.218;3.452;2022-11-21T07:19:05;18.53;;;5.17;;
20870;SDS011;10595;51.218;3.452;2022-11-21T07:21:31;10.47;;;4.67;;
20870;SDS011;10595;51.218;3.452;2022-11-21T07:23:57;10.03;;;4.73;;
20870;SDS011;10595;51.218;3.452;2022-11-21T07:26:23;13.03;;;5.07;;
20870;SDS011;10595;51.218;3.452;2022-11-21T07:28:49;9.70;;;4.50;;
20870;SDS011;10595;51.218;3.452;2022-11-21T07:31:15;12.37;;;4.73;;
20870;SDS011;10595;51.218;3.452;2022-11-21T07:33:42;9.97;;;4.50;;
20870;SDS011;10595;51.218;3.452;2022-11-21T07:36:10;12.70;;;4.80;;
20870;SDS011;10595;51.218;3.452;2022-11-21T07:38:36;10.57;;;4.90;;
20870;SDS011;10595;51.218;3.452;2022-11-21T07:41:02;10.77;;;5.00;;
20870;SDS011;10595;51.218;3.452;2022-11-21T07:43:28;9.27;;;4.80;;
20870;SDS011;10595;51.218;3.452;2022-11-21T07:45:54;11.20;;;5.23;;
20870;SDS011;10595;51.218;3.452;2022-11-21T07:48:20;13.13;;;4.93;;
20870;SDS011;10595;51.218;3.452;2022-11-21T07:50:46;17.83;;;5.00;;
20870;SDS011;10595;51.218;3.452;2022-11-21T07:53:12;17.70;;;5.17;;
20870;SDS011;10595;51.218;3.452;2022-11-21T07:55:38;12.93;;;5.80;;
20870;SDS011;10595;51.218;3.452;2022-11-21T07:58:06;10.57;;;5.40;;
20870;SDS011;10595;51.218;3.452;2022-11-21T08:00:33;17.10;;;6.17;;
20870;SDS011;10595;51.218;3.452;2022-11-21T08:02:59;16.77;;;5.40;;
20870;SDS011;10595;51.218;3.452;2022-11-21T08:05:25;16.00;;;5.77;;
20870;SDS011;10595;51.218;3.452;2022-11-21T08:07:51;15.97;;;6.63;;
20870;SDS011;10595;51.218;3.452;2022-11-21T08:10:17;11.53;;;5.50;;
20870;SDS011;10595;51.218;3.452;2022-11-21T08:12:43;13.30;;;5.50;;
20870;SDS011;10595;51.218;3.452;2022-11-21T08:15:10;13.27;;;5.43;;
20870;SDS011;10595;51.218;3.452;2022-11-21T08:17:36;14.07;;;5.57;;
20870;SDS011;10595;51.218;3.452;2022-11-21T08:20:03;14.37;;;6.20;;
20870;SDS011;10595;51.218;3.452;2022-11-21T08:22:29;14.57;;;6.80;;
20870;SDS011;10595;51.218;3.452;2022-11-21T08:24:55;15.87;;;6.73;;
20870;SDS011;10595;51.218;3.452;2022-11-21T08:27:21;15.33;;;7.73;;
20870;SDS011;10595;51.218;3.452;2022-11-21T08:29:48;16.93;;;8.07;;
20870;SDS011;10595;51.218;3.452;2022-11-21T08:32:14;16.67;;;8.03;;
20870;SDS011;10595;51.218;3.452;2022-11-21T08:34:40;21.53;;;8.50;;
20870;SDS011;10595;51.218;3.452;2022-11-21T08:37:06;19.17;;;8.23;;
20870;SDS011;10595;51.218;3.452;2022-11-21T08:39:32;15.97;;;7.70;;
20870;SDS011;10595;51.218;3.452;2022-11-21T08:41:58;16.97;;;8.43;;
20870;SDS011;10595;51.218;3.452;2022-11-21T08:44:28;19.10;;;7.00;;
20870;SDS011;10595;51.218;3.452;2022-11-21T08:46:54;13.23;;;6.07;;
20870;SDS011;10595;51.218;3.452;2022-11-21T08:49:20;12.93;;;5.93;;
20870;SDS011;10595;51.218;3.452;2022-11-21T08:51:46;9.20;;;4.90;;
20870;SDS011;10595;51.218;3.452;2022-11-21T08:54:16;13.90;;;5.50;;
20870;SDS011;10595;51.218;3.452;2022-11-21T08:56:43;15.10;;;5.60;;
20870;SDS011;10595;51.218;3.452;2022-11-21T08:59:09;15.03;;;4.80;;
20870;SDS011;10595;51.218;3.452;2022-11-21T09:01:35;13.83;;;5.07;;
20870;SDS011;10595;51.218;3.452;2022-11-21T09:04:01;11.70;;;4.70;;
20870;SDS011;10595;51.218;3.452;2022-11-21T09:06:28;16.33;;;5.53;;
20870;SDS011;10595;51.218;3.452;2022-11-21T09:08:54;17.97;;;4.63;;
20870;SDS011;10595;51.218;3.452;2022-11-21T09:11:20;14.57;;;4.90;;
20870;SDS011;10595;51.218;3.452;2022-11-21T09:13:46;10.90;;;4.40;;
20870;SDS011;10595;51.218;3.452;2022-11-21T09:16:32;16.67;;;4.63;;
20870;SDS011;10595;51.218;3.452;2022-11-21T09:19:17;9.33;;;4.30;;
20870;SDS011;10595;51.218;3.452;2022-11-21T09:21:43;14.37;;;4.80;;
20870;SDS011;10595;51.218;3.452;2022-11-21T09:24:09;14.80;;;5.27;;
20870;SDS011;10595;51.218;3.452;2022-11-21T09:26:35;13.60;;;4.63;;
20870;SDS011;10595;51.218;3.452;2022-11-21T09:29:01;11.27;;;4.40;;
20870;SDS011;10595;51.218;3.452;2022-11-21T09:31:28;13.73;;;4.33;;
20870;SDS011;10595;51.218;3.452;2022-11-21T09:33:54;15.60;;;4.60;;
20870;SDS011;10595;51.218;3.452;2022-11-21T09:36:20;8.70;;;3.83;;
20870;SDS011;10595;51.218;3.452;2022-11-21T09:38:46;12.17;;;4.00;;
20870;SDS011;10595;51.218;3.452;2022-11-21T09:44:10;13.87;;;3.90;;
20870;SDS011;10595;51.218;3.452;2022-11-21T09:46:41;12.73;;;4.30;;
20870;SDS011;10595;51.218;3.452;2022-11-21T09:49:10;12.07;;;3.90;;
20870;SDS011;10595;51.218;3.452;2022-11-21T09:51:36;18.87;;;4.67;;
20870;SDS011;10595;51.218;3.452;2022-11-21T09:54:11;17.10;;;4.57;;
20870;SDS011;10595;51.218;3.452;2022-11-21T09:56:40;14.03;;;3.83;;
20870;SDS011;10595;51.218;3.452;2022-11-21T09:59:18;14.63;;;4.23;;
20870;SDS011;10595;51.218;3.452;2022-11-21T10:01:49;18.77;;;4.37;;
20870;SDS011;10595;51.218;3.452;2022-11-21T10:04:15;12.53;;;4.47;;
20870;SDS011;10595;51.218;3.452;2022-11-21T10:06:48;15.07;;;5.10;;
20870;SDS011;10595;51.218;3.452;2022-11-21T10:17:10;22.83;;;4.80;;
20870;SDS011;10595;51.218;3.452;2022-11-21T10:22:27;27.73;;;4.90;;
20870;SDS011;10595;51.218;3.452;2022-11-21T10:25:02;20.03;;;5.50;;
20870;SDS011;10595;51.218;3.452;2022-11-21T10:27:30;15.20;;;4.93;;
20870;SDS011;10595;51.218;3.452;2022-11-21T10:30:00;21.70;;;5.77;;
20870;SDS011;10595;51.218;3.452;2022-11-21T10:35:00;16.47;;;5.30;;
20870;SDS011;10595;51.218;3.452;2022-11-21T10:37:30;18.90;;;5.77;;
20870;SDS011;10595;51.218;3.452;2022-11-21T10:39:59;20.10;;;6.30;;
20870;SDS011;10595;51.218;3.452;2022-11-21T10:42:34;14.80;;;5.17;;
20870;SDS011;10595;51.218;3.452;2022-11-21T10:45:00;20.20;;;5.83;;
20870;SDS011;10595;51.218;3.452;2022-11-21T10:47:44;18.83;;;6.43;;
20870;SDS011;10595;51.218;3.452;2022-11-21T10:55:13;29.47;;;7.07;;
20870;SDS011;10595;51.218;3.452;2022-11-21T10:57:46;18.20;;;6.20;;
20870;SDS011;10595;51.218;3.452;2022-11-21T11:02:43;18.17;;;6.50;;
20870;SDS011;10595;51.218;3.452;2022-11-21T11:05:25;18.03;;;5.97;;
20870;SDS011;10595;51.218;3.452;2022-11-21T11:07:57;20.27;;;6.27;;
20870;SDS011;10595;51.218;3.452;2022-11-21T11:10:25;16.90;;;6.13;;
20870;SDS011;10595;51.218;3.452;2022-11-21T11:12:51;19.43;;;6.10;;
20870;SDS011;10595;51.218;3.452;2022-11-21T11:15:36;19.77;;;7.17;;
20870;SDS011;10595;51.218;3.452;2022-11-21T11:18:04;19.20;;;6.50;;
20870;SDS011;10595;51.218;3.452;2022-11-21T11:23:14;25.50;;;8.13;;
20870;SDS011;10595;51.218;3.452;2022-11-21T11:25:44;21.07;;;7.60;;
20870;SDS011;10595;51.218;3.452;2022-11-21T11:28:11;39.23;;;16.57;;
20870;SDS011;10595;51.218;3.452;2022-11-21T11:30:37;15.57;;;7.63;;
20870;SDS011;10595;51.218;3.452;2022-11-21T11:33:03;22.53;;;6.70;;
20870;SDS011;10595;51.218;3.452;2022-11-21T11:35:29;13.80;;;6.03;;
20870;SDS011;10595;51.218;3.452;2022-11-21T11:37:58;15.40;;;6.30;;
20870;SDS011;10595;51.218;3.452;2022-11-21T11:46:03;18.23;;;7.67;;
20870;SDS011;10595;51.218;3.452;2022-11-21T11:48:50;24.63;;;8.60;;
20870;SDS011;10595;51.218;3.452;2022-11-21T11:51:26;24.57;;;8.00;;
20870;SDS011;10595;51.218;3.452;2022-11-21T11:53:54;14.90;;;7.80;;
20870;SDS011;10595;51.218;3.452;2022-11-21T11:56:24;18.50;;;8.20;;
20870;SDS011;10595;51.218;3.452;2022-11-21T11:58:58;18.80;;;8.47;;
20870;SDS011;10595;51.218;3.452;2022-11-21T12:04:13;15.90;;;8.23;;
20870;SDS011;10595;51.218;3.452;2022-11-21T12:11:53;18.17;;;9.17;;
20870;SDS011;10595;51.218;3.452;2022-11-21T12:17:18;20.80;;;9.00;;
20870;SDS011;10595;51.218;3.452;2022-11-21T12:19:45;22.20;;;9.23;;
20870;SDS011;10595;51.218;3.452;2022-11-21T12:22:13;20.93;;;9.03;;
20870;SDS011;10595;51.218;3.452;2022-11-21T12:24:39;19.13;;;8.37;;
20870;SDS011;10595;51.218;3.452;2022-11-21T12:32:44;17.80;;;8.90;;
20870;SDS011;10595;51.218;3.452;2022-11-21T12:45:30;26.27;;;10.53;;
20870;SDS011;10595;51.218;3.452;2022-11-21T12:48:10;25.53;;;10.97;;
20870;SDS011;10595;51.218;3.452;2022-11-21T12:59:28;22.10;;;10.37;;
20870;SDS011;10595;51.218;3.452;2022-11-21T13:01:59;23.07;;;10.63;;
20870;SDS011;10595;51.218;3.452;2022-11-21T13:04:29;24.83;;;11.60;;
20870;SDS011;10595;51.218;3.452;2022-11-21T13:06:57;25.87;;;11.57;;
20870;SDS011;10595;51.218;3.452;2022-11-21T13:09:23;23.43;;;11.37;;
20870;SDS011;10595;51.218;3.452;2022-11-21T13:11:53;24.27;;;12.07;;
20870;SDS011;10595;51.218;3.452;2022-11-21T13:14:40;30.07;;;12.07;;
20870;SDS011;10595;51.218;3.452;2022-11-21T13:19:40;26.97;;;12.30;;
20870;SDS011;10595;51.218;3.452;2022-11-21T13:22:46;27.93;;;12.60;;
20870;SDS011;10595;51.218;3.452;2022-11-21T13:24:54;29.77;;;12.65;;
20870;SDS011;10595;51.218;3.452;2022-11-21T13:32:42;33.43;;;12.13;;
20870;SDS011;10595;51.218;3.452;2022-11-21T13:38:05;28.50;;;10.73;;
20870;SDS011;10595;51.218;3.452;2022-11-21T13:45:40;33.50;;;10.47;;
20870;SDS011;10595;51.218;3.452;2022-11-21T13:55:48;20.70;;;8.93;;
20870;SDS011;10595;51.218;3.452;2022-11-21T14:06:24;27.07;;;8.53;;
20870;SDS011;10595;51.218;3.452;2022-11-21T14:11:48;27.47;;;9.30;;
20870;SDS011;10595;51.218;3.452;2022-11-21T14:14:24;25.87;;;11.47;;
20870;SDS011;10595;51.218;3.452;2022-11-21T14:16:52;28.37;;;8.13;;
20870;SDS011;10595;51.218;3.452;2022-11-21T14:19:21;21.23;;;7.90;;
20870;SDS011;10595;51.218;3.452;2022-11-21T14:21:47;25.53;;;8.73;;
20870;SDS011;10595;51.218;3.452;2022-11-21T14:24:16;21.17;;;7.53;;
20870;SDS011;10595;51.218;3.452;2022-11-21T14:26:43;20.87;;;7.33;;
20870;SDS011;10595;51.218;3.452;2022-11-21T14:31:51;20.60;;;7.23;;
20870;SDS011;10595;51.218;3.452;2022-11-21T14:34:24;19.07;;;6.90;;
20870;SDS011;10595;51.218;3.452;2022-11-21T14:36:51;18.73;;;7.20;;
20870;SDS011;10595;51.218;3.452;2022-11-21T14:39:17;15.67;;;6.20;;
20870;SDS011;10595;51.218;3.452;2022-11-21T14:41:54;14.63;;;5.83;;
20870;SDS011;10595;51.218;3.452;2022-11-21T14:44:22;18.80;;;6.27;;
20870;SDS011;10595;51.218;3.452;2022-11-21T14:46:48;25.00;;;7.13;;
20870;SDS011;10595;51.218;3.452;2022-11-21T14:51:42;16.07;;;5.90;;
20870;SDS011;10595;51.218;3.452;2022-11-21T14:54:12;15.07;;;6.50;;
20870;SDS011;10595;51.218;3.452;2022-11-21T14:56:39;20.90;;;6.23;;
20870;SDS011;10595;51.218;3.452;2022-11-21T14:59:08;17.43;;;6.30;;
20870;SDS011;10595;51.218;3.452;2022-11-21T15:01:36;13.40;;;6.53;;
20870;SDS011;10595;51.218;3.452;2022-11-21T15:04:04;22.27;;;7.47;;
20870;SDS011;10595;51.218;3.452;2022-11-21T15:06:33;18.70;;;6.03;;
20870;SDS011;10595;51.218;3.452;2022-11-21T15:09:05;18.37;;;6.43;;
20870;SDS011;10595;51.218;3.452;2022-11-21T15:11:32;12.27;;;5.63;;
20870;SDS011;10595;51.218;3.452;2022-11-21T15:14:01;19.33;;;6.77;;
20870;SDS011;10595;51.218;3.452;2022-11-21T15:16:27;12.17;;;5.80;;
20870;SDS011;10595;51.218;3.452;2022-11-21T15:18:53;19.50;;;6.20;;
20870;SDS011;10595;51.218;3.452;2022-11-21T15:21:20;20.00;;;6.47;;
20870;SDS011;10595;51.218;3.452;2022-11-21T15:23:46;20.47;;;7.03;;
20870;SDS011;10595;51.218;3.452;2022-11-21T15:28:54;19.80;;;6.40;;
20870;SDS011;10595;51.218;3.452;2022-11-21T15:31:20;16.00;;;6.10;;
20870;SDS011;10595;51.218;3.452;2022-11-21T15:34:00;14.60;;;6.30;;
20870;SDS011;10595;51.218;3.452;2022-11-21T15:36:27;18.87;;;7.63;;
20870;SDS011;10595;51.218;3.452;2022-11-21T15:41:24;18.27;;;6.17;;
20870;SDS011;10595;51.218;3.452;2022-11-21T15:43:51;18.33;;;7.23;;
20870;SDS011;10595;51.218;3.452;2022-11-21T15:46:27;21.47;;;7.37;;
20870;SDS011;10595;51.218;3.452;2022-11-21T15:48:54;26.03;;;8.70;;
20870;SDS011;10595;51.218;3.452;2022-11-21T15:51:21;22.70;;;7.87;;
20870;SDS011;10595;51.218;3.452;2022-11-21T15:53:47;21.73;;;9.80;;
20870;SDS011;10595;51.218;3.452;2022-11-21T15:56:14;22.60;;;10.40;;
20870;SDS011;10595;51.218;3.452;2022-11-21T15:58:41;23.30;;;9.37;;
20870;SDS011;10595;51.218;3.452;2022-11-21T16:03:39;19.90;;;9.37;;
20870;SDS011;10595;51.218;3.452;2022-11-21T16:06:06;16.77;;;8.57;;
20870;SDS011;10595;51.218;3.452;2022-11-21T16:08:33;20.13;;;7.50;;
20870;SDS011;10595;51.218;3.452;2022-11-21T16:10:59;15.63;;;7.20;;
20870;SDS011;10595;51.218;3.452;2022-11-21T16:13:25;15.97;;;6.50;;
20870;SDS011;10595;51.218;3.452;2022-11-21T16:15:51;16.90;;;6.27;;
20870;SDS011;10595;51.218;3.452;2022-11-21T16:18:17;20.70;;;7.07;;
20870;SDS011;10595;51.218;3.452;2022-11-21T16:20:43;16.27;;;6.40;;
20870;SDS011;10595;51.218;3.452;2022-11-21T16:23:09;16.57;;;6.00;;
20870;SDS011;10595;51.218;3.452;2022-11-21T16:25:36;15.53;;;6.30;;
20870;SDS011;10595;51.218;3.452;2022-11-21T16:28:02;18.33;;;6.87;;
20870;SDS011;10595;51.218;3.452;2022-11-21T16:30:28;15.10;;;6.50;;
20870;SDS011;10595;51.218;3.452;2022-11-21T16:32:54;19.03;;;6.93;;
20870;SDS011;10595;51.218;3.452;2022-11-21T16:35:23;19.60;;;6.43;;
20870;SDS011;10595;51.218;3.452;2022-11-21T16:37:49;19.07;;;6.97;;
20870;SDS011;10595;51.218;3.452;2022-11-21T16:40:17;16.97;;;5.90;;
20870;SDS011;10595;51.218;3.452;2022-11-21T16:42:43;18.20;;;5.63;;
20870;SDS011;10595;51.218;3.452;2022-11-21T16:45:09;18.80;;;5.43;;
20870;SDS011;10595;51.218;3.452;2022-11-21T16:47:35;19.60;;;6.87;;
20870;SDS011;10595;51.218;3.452;2022-11-21T16:50:02;17.83;;;5.27;;